Terminal Aerodrome Forecast
Issued by NWS

Home | Current Version | Previous Version | Text Only | Print | Product List | Glossary Off
Versions: 1 2 3 4 5 6 7 8 9 10 11 12 13 14 15 16 17 18 19 20

000
FTUS43 KSGF 202300
TAFJLN
TAF
KJLN 202320Z 2100/2124 22006KT P6SM SCT050 BKN250
     FM210500 25006KT P6SM VCTS SCT050CB BKN250
     FM211300 35010KT P6SM SCT250=

USA.gov is the U.S. government's official web portal to all federal, state and local government web resources and services.